createdAt,value
2023-02-12T00:01:29.256Z,16.63
2023-02-12T00:03:57.426Z,23.20
2023-02-12T00:06:25.828Z,19.60
2023-02-12T00:08:56.963Z,16.83
2023-02-12T00:11:26.721Z,19.97
2023-02-12T00:13:54.849Z,15.13
2023-02-12T00:16:25.328Z,20.70
2023-02-12T00:18:55.758Z,17.90
2023-02-12T00:21:25.093Z,15.90
2023-02-12T00:23:53.230Z,16.43
2023-02-12T00:26:23.013Z,26.20
2023-02-12T00:28:53.078Z,18.60
2023-02-12T00:31:23.695Z,18.90
2023-02-12T00:33:51.788Z,19.20
2023-02-12T00:36:22.846Z,15.73
2023-02-12T00:38:52.380Z,19.60
2023-02-12T00:41:20.878Z,16.57
2023-02-12T00:43:50.258Z,16.93
2023-02-12T00:46:18.623Z,12.63
2023-02-12T00:48:46.660Z,18.67
2023-02-12T00:51:15.131Z,18.13
2023-02-12T00:53:44.840Z,18.93
2023-02-12T00:56:12.916Z,18.03
2023-02-12T00:58:42.118Z,16.37
2023-02-12T01:01:10.437Z,22.13
2023-02-12T01:03:39.529Z,19.33
2023-02-12T01:06:09.008Z,17.20
2023-02-12T01:08:37.070Z,21.70
2023-02-12T01:11:07.374Z,14.27
2023-02-12T01:13:36.023Z,20.03
2023-02-12T01:16:06.751Z,15.97
2023-02-12T01:18:35.989Z,16.83
2023-02-12T01:21:10.189Z,19.03
2023-02-12T01:23:38.176Z,20.33
2023-02-12T01:26:10.837Z,18.00
2023-02-12T01:28:39.455Z,20.07
2023-02-12T01:31:11.677Z,19.00
2023-02-12T01:33:40.213Z,17.43
2023-02-12T01:36:09.988Z,18.53
2023-02-12T01:38:38.154Z,17.60
2023-02-12T01:41:07.845Z,15.83
2023-02-12T01:43:37.908Z,14.47
2023-02-12T01:46:06.871Z,19.97
2023-02-12T01:48:37.976Z,19.57
2023-02-12T01:51:07.196Z,16.97
2023-02-12T01:53:41.189Z,20.07
2023-02-12T01:56:12.230Z,20.70
2023-02-12T01:58:43.008Z,20.53
2023-02-12T02:01:14.834Z,18.47
2023-02-12T02:03:43.619Z,17.27
2023-02-12T02:06:13.550Z,17.63
2023-02-12T02:08:45.556Z,17.70
2023-02-12T02:11:31.355Z,16.33
2023-02-12T02:14:21.188Z,15.73
2023-02-12T02:16:59.100Z,17.33
2023-02-12T02:19:43.218Z,18.63
2023-02-12T02:22:19.847Z,14.10
2023-02-12T02:25:31.720Z,17.13
2023-02-12T02:28:07.553Z,21.83
2023-02-12T02:30:45.325Z,20.53
2023-02-12T02:33:31.541Z,11.00
2023-02-12T02:36:07.652Z,17.17
2023-02-12T02:43:08.342Z,18.27
2023-02-12T02:45:40.407Z,17.47
2023-02-12T02:48:11.701Z,18.00
2023-02-12T02:50:42.331Z,17.43
2023-02-12T02:53:13.771Z,23.87
2023-02-12T02:55:45.139Z,16.53
2023-02-12T02:58:16.020Z,20.50
2023-02-12T03:00:49.828Z,17.17
2023-02-12T03:03:22.460Z,19.07
2023-02-12T03:05:55.285Z,18.67
2023-02-12T03:08:26.184Z,18.90
2023-02-12T03:10:56.807Z,19.63
2023-02-12T03:13:26.845Z,22.20
2023-02-12T03:16:00.130Z,18.37
2023-02-12T03:18:33.077Z,22.70
2023-02-12T03:21:03.970Z,20.30
2023-02-12T03:23:37.148Z,18.40
2023-02-12T03:26:07.415Z,17.20
2023-02-12T03:28:37.181Z,21.77
2023-02-12T03:31:12.344Z,17.27
2023-02-12T03:33:49.650Z,21.87
2023-02-12T03:36:28.079Z,16.20
2023-02-12T03:38:57.700Z,21.67
2023-02-12T03:41:29.130Z,19.40
2023-02-12T03:44:01.356Z,18.50
2023-02-12T03:46:38.564Z,21.90
2023-02-12T03:49:11.688Z,18.40
2023-02-12T03:51:41.944Z,22.33
2023-02-12T03:54:12.063Z,19.63
2023-02-12T03:56:44.149Z,18.43
2023-02-12T03:59:12.391Z,17.07
2023-02-12T04:01:42.541Z,21.50
2023-02-12T04:04:12.422Z,22.97
2023-02-12T04:06:41.434Z,16.57
2023-02-12T04:09:11.617Z,18.87
2023-02-12T04:11:49.552Z,18.07
2023-02-12T04:14:23.446Z,22.20
2023-02-12T04:17:01.754Z,23.03
2023-02-12T04:19:36.064Z,25.03
2023-02-12T04:22:19.938Z,23.90
2023-02-12T04:24:52.340Z,23.87
2023-02-12T04:27:24.251Z,21.13
2023-02-12T04:29:57.024Z,23.77
2023-02-12T04:32:32.892Z,22.10
2023-02-12T04:35:06.827Z,21.20
2023-02-12T04:37:39.610Z,18.60
2023-02-12T04:40:11.212Z,23.13
2023-02-12T04:42:44.211Z,21.53
2023-02-12T04:45:12.838Z,20.63
2023-02-12T04:47:42.478Z,20.83
2023-02-12T04:50:11.358Z,26.27
2023-02-12T04:52:39.525Z,26.03
2023-02-12T04:55:08.239Z,27.90
2023-02-12T04:57:37.479Z,21.53
2023-02-12T05:00:05.918Z,20.60
2023-02-12T05:02:35.083Z,21.33
2023-02-12T05:05:05.339Z,25.57
2023-02-12T05:07:34.103Z,23.57
2023-02-12T05:10:03.634Z,20.87
2023-02-12T05:12:31.908Z,21.40
2023-02-12T05:15:00.212Z,17.87
2023-02-12T05:17:28.281Z,22.00
2023-02-12T05:19:56.664Z,20.27
2023-02-12T05:22:26.378Z,21.17
2023-02-12T05:24:54.885Z,20.27
2023-02-12T05:27:22.943Z,21.20
2023-02-12T05:29:51.254Z,18.80
2023-02-12T05:32:20.394Z,21.47
2023-02-12T05:34:48.951Z,23.00
2023-02-12T05:37:18.446Z,20.17
2023-02-12T05:39:50.347Z,21.67
2023-02-12T05:42:18.430Z,22.40
2023-02-12T05:44:47.163Z,19.67
2023-02-12T05:47:15.477Z,22.37
2023-02-12T05:49:43.920Z,19.07
2023-02-12T05:52:12.082Z,18.17
2023-02-12T05:54:40.078Z,18.03
2023-02-12T05:57:09.323Z,23.37
2023-02-12T05:59:37.359Z,16.10
2023-02-12T06:02:05.835Z,17.27
2023-02-12T06:04:33.968Z,19.90
2023-02-12T06:07:05.019Z,23.67
2023-02-12T06:09:32.949Z,16.33
2023-02-12T06:12:01.097Z,17.27
2023-02-12T06:14:31.970Z,15.53
2023-02-12T06:17:00.520Z,19.90
2023-02-12T06:19:28.694Z,19.97
2023-02-12T06:21:57.057Z,21.27
2023-02-12T06:24:25.091Z,16.10
2023-02-12T06:26:53.407Z,17.67
2023-02-12T06:29:21.993Z,18.77
2023-02-12T06:31:51.555Z,18.40
2023-02-12T06:34:19.680Z,19.43
2023-02-12T06:36:48.897Z,21.53
2023-02-12T06:39:17.600Z,20.03
2023-02-12T06:41:45.850Z,20.13
2023-02-12T06:44:13.979Z,18.63
2023-02-12T06:46:42.062Z,20.00
2023-02-12T06:49:14.287Z,17.07
2023-02-12T06:51:42.864Z,20.80
2023-02-12T06:54:15.461Z,19.33
2023-02-12T06:56:43.525Z,16.03
2023-02-12T06:59:17.248Z,17.93
2023-02-12T07:01:45.709Z,57.07
2023-02-12T07:04:15.350Z,18.67
2023-02-12T07:06:43.420Z,19.73
2023-02-12T07:09:11.434Z,23.97
2023-02-12T07:11:39.528Z,17.97
2023-02-12T07:14:08.697Z,17.17
2023-02-12T07:16:36.827Z,21.33
2023-02-12T07:19:05.040Z,16.07
2023-02-12T07:21:35.894Z,18.13
2023-02-12T07:24:03.865Z,17.20
2023-02-12T07:26:31.850Z,15.77
2023-02-12T07:29:00.901Z,12.07
2023-02-12T07:31:29.922Z,16.23
2023-02-12T07:33:59.635Z,19.53
2023-02-12T07:36:29.209Z,16.87
2023-02-12T07:39:00.093Z,14.10
2023-02-12T07:41:29.521Z,16.03
2023-02-12T07:43:58.781Z,14.67
2023-02-12T07:46:30.517Z,17.23
2023-02-12T07:48:59.816Z,17.53
2023-02-12T07:51:29.267Z,14.90
2023-02-12T07:53:59.181Z,18.60
2023-02-12T07:56:32.014Z,16.07
2023-02-12T07:59:01.170Z,15.40
2023-02-12T08:01:31.323Z,16.20
2023-02-12T08:04:00.738Z,16.43
2023-02-12T08:06:30.067Z,22.40
2023-02-12T08:09:00.752Z,16.20
2023-02-12T08:11:30.312Z,15.23
2023-02-12T08:13:59.682Z,19.10
2023-02-12T08:16:29.756Z,15.43
2023-02-12T08:19:10.733Z,13.70
2023-02-12T08:21:44.474Z,19.03
2023-02-12T08:24:16.568Z,18.03
2023-02-12T08:26:45.760Z,15.50
2023-02-12T08:29:21.509Z,15.07
2023-02-12T08:31:50.727Z,11.17
2023-02-12T08:34:21.225Z,16.73
2023-02-12T08:36:50.641Z,15.40
2023-02-12T08:39:24.600Z,15.57
2023-02-12T08:41:52.994Z,16.40
2023-02-12T08:44:23.590Z,16.07
2023-02-12T08:46:53.405Z,15.57
2023-02-12T08:49:23.170Z,17.83
2023-02-12T08:51:54.846Z,14.53
2023-02-12T08:54:26.365Z,23.10
2023-02-12T08:56:56.940Z,20.77
2023-02-12T08:59:25.105Z,18.87
2023-02-12T09:01:55.000Z,18.47
2023-02-12T09:04:25.639Z,16.63
2023-02-12T09:06:54.080Z,13.93
2023-02-12T09:09:24.470Z,15.10
2023-02-12T09:11:52.946Z,19.27
2023-02-12T09:14:23.949Z,17.23
2023-02-12T09:16:53.467Z,16.40
2023-02-12T09:19:24.006Z,15.33
2023-02-12T09:21:57.354Z,20.63
2023-02-12T09:24:28.202Z,18.20
2023-02-12T09:26:56.446Z,18.53
2023-02-12T09:29:24.587Z,17.10
2023-02-12T09:31:57.444Z,17.77
2023-02-12T09:34:25.625Z,16.97
2023-02-12T09:36:56.271Z,14.77
2023-02-12T09:39:30.494Z,19.73
2023-02-12T09:42:23.007Z,20.20
2023-02-12T09:44:57.712Z,17.43
2023-02-12T09:47:30.260Z,18.40
2023-02-12T09:50:10.186Z,16.33
2023-02-12T09:52:41.886Z,13.00
2023-02-12T09:55:15.267Z,19.17
2023-02-12T09:57:44.006Z,17.63
2023-02-12T10:00:16.438Z,18.13
2023-02-12T10:02:45.584Z,15.80
2023-02-12T10:05:17.863Z,19.43
2023-02-12T10:08:27.797Z,19.70
2023-02-12T10:11:05.228Z,15.50
2023-02-12T10:13:43.269Z,15.20
2023-02-12T10:16:18.710Z,16.70
2023-02-12T10:18:57.452Z,15.17
2023-02-12T10:21:35.960Z,16.87
2023-02-12T10:24:25.211Z,14.67
2023-02-12T10:26:59.004Z,16.60
2023-02-12T10:29:29.501Z,12.63
2023-02-12T10:32:01.694Z,14.10
2023-02-12T10:34:34.148Z,15.80
2023-02-12T10:37:04.906Z,16.23
2023-02-12T10:39:38.284Z,16.00
2023-02-12T10:42:12.959Z,11.93
2023-02-12T10:44:41.068Z,14.43
2023-02-12T10:47:13.975Z,15.20
2023-02-12T10:49:44.504Z,12.17
2023-02-12T10:52:18.492Z,13.00
2023-02-12T10:54:49.122Z,12.83
2023-02-12T10:57:23.054Z,10.83
2023-02-12T10:59:53.113Z,14.37
2023-02-12T11:02:24.232Z,16.00
2023-02-12T11:04:53.169Z,14.63
2023-02-12T11:07:22.103Z,12.70
2023-02-12T11:09:54.360Z,18.13
2023-02-12T11:12:32.766Z,15.77
2023-02-12T11:15:02.919Z,15.60
2023-02-12T11:17:36.926Z,14.50
2023-02-12T11:20:24.209Z,16.73
2023-02-12T11:22:57.389Z,15.17
2023-02-12T11:25:27.896Z,14.27
2023-02-12T11:28:15.592Z,13.63
2023-02-12T11:30:52.648Z,17.30
2023-02-12T11:33:32.501Z,16.23
2023-02-12T11:36:06.383Z,18.73
2023-02-12T11:38:37.245Z,16.87
2023-02-12T11:41:09.592Z,16.27
2023-02-12T11:43:40.326Z,13.97
2023-02-12T11:46:09.691Z,12.63
2023-02-12T11:48:44.491Z,11.47
2023-02-12T11:51:20.716Z,14.57
2023-02-12T11:53:53.148Z,11.47
2023-02-12T11:56:23.975Z,10.87
2023-02-12T11:58:55.582Z,12.07
2023-02-12T12:01:26.489Z,13.17
2023-02-12T12:04:01.092Z,10.60
2023-02-12T12:06:35.976Z,10.37
2023-02-12T12:09:09.279Z,11.13
2023-02-12T12:11:42.891Z,10.33
2023-02-12T12:14:19.773Z,7.17
2023-02-12T12:17:09.306Z,12.20
2023-02-12T12:19:56.186Z,11.27
2023-02-12T12:22:37.407Z,9.23
2023-02-12T12:25:12.540Z,11.03
2023-02-12T12:28:06.150Z,9.13
2023-02-12T12:30:54.146Z,10.40
2023-02-12T12:33:31.695Z,9.87
2023-02-12T12:36:25.312Z,10.93
2023-02-12T12:38:59.785Z,11.00
2023-02-12T12:41:34.885Z,10.60
2023-02-12T12:44:16.639Z,10.37
2023-02-12T12:47:00.365Z,11.17
2023-02-12T12:49:39.176Z,12.97
2023-02-12T12:52:24.847Z,10.67
2023-02-12T12:55:06.935Z,8.47
2023-02-12T12:57:47.732Z,8.43
2023-02-12T13:00:36.501Z,9.13
2023-02-12T13:03:37.691Z,8.03
2023-02-12T13:06:55.823Z,14.00
2023-02-12T13:09:40.625Z,9.57
2023-02-12T13:12:32.650Z,9.87
2023-02-12T13:15:05.379Z,9.20
2023-02-12T13:17:36.979Z,9.97
2023-02-12T13:20:12.713Z,9.83
2023-02-12T13:22:46.006Z,8.77
2023-02-12T13:25:32.266Z,8.93
2023-02-12T13:28:01.467Z,7.87
2023-02-12T13:30:33.673Z,10.77
2023-02-12T13:33:07.991Z,9.83
2023-02-12T13:35:39.253Z,8.07
2023-02-12T13:38:10.112Z,9.33
2023-02-12T13:40:42.037Z,8.57
2023-02-12T13:43:36.590Z,7.83
2023-02-12T13:46:13.035Z,8.37
2023-02-12T13:48:56.147Z,6.73
2023-02-12T13:51:32.087Z,6.80
2023-02-12T13:54:07.983Z,10.70
2023-02-12T13:56:42.750Z,7.93
2023-02-12T13:59:45.291Z,7.87
2023-02-12T14:02:43.051Z,6.40
2023-02-12T14:05:34.735Z,7.67
2023-02-12T14:08:05.551Z,9.63
2023-02-12T14:10:37.906Z,7.10
2023-02-12T14:13:16.301Z,6.40
2023-02-12T14:15:52.195Z,6.93
2023-02-12T14:18:29.275Z,8.73
2023-02-12T14:21:43.904Z,7.03
2023-02-12T14:24:47.659Z,7.40
2023-02-12T14:27:37.476Z,6.83
2023-02-12T14:30:30.994Z,5.87
2023-02-12T14:33:26.911Z,7.03
2023-02-12T14:36:19.926Z,5.53
2023-02-12T14:39:05.259Z,5.30
2023-02-12T14:41:44.096Z,7.13
2023-02-12T14:44:46.438Z,7.17
2023-02-12T14:47:53.384Z,5.23
2023-02-12T14:50:25.735Z,8.50
2023-02-12T14:52:56.932Z,6.73
2023-02-12T14:55:34.333Z,6.73
2023-02-12T14:58:05.282Z,7.23
2023-02-12T15:00:37.829Z,6.43
2023-02-12T15:03:20.125Z,7.07
2023-02-12T15:05:51.848Z,8.00
2023-02-12T15:08:28.734Z,9.87
2023-02-12T15:11:00.593Z,10.47
2023-02-12T15:13:36.489Z,7.37
2023-02-12T15:16:09.518Z,7.00
2023-02-12T15:18:50.116Z,6.37
2023-02-12T15:21:27.871Z,10.07
2023-02-12T15:24:03.050Z,7.63
2023-02-12T15:26:33.290Z,8.53
2023-02-12T15:29:02.055Z,11.90
2023-02-12T15:31:34.603Z,10.90
2023-02-12T15:34:05.932Z,12.33
2023-02-12T15:36:37.270Z,8.47
2023-02-12T15:39:06.691Z,8.87
2023-02-12T15:41:40.229Z,7.53
2023-02-12T15:44:21.592Z,8.03
2023-02-12T15:47:01.645Z,10.57
2023-02-12T15:49:35.297Z,6.83
2023-02-12T15:52:06.820Z,10.07
2023-02-12T15:54:35.349Z,9.47
2023-02-12T15:57:11.076Z,10.17
2023-02-12T15:59:41.941Z,10.87
2023-02-12T16:02:19.228Z,11.40
2023-02-12T16:04:49.620Z,8.20
2023-02-12T16:07:18.241Z,9.70
2023-02-12T16:09:47.122Z,8.97
2023-02-12T16:12:19.383Z,9.00
2023-02-12T16:14:50.582Z,9.90
2023-02-12T16:17:28.583Z,10.50
2023-02-12T16:20:02.224Z,8.90
2023-02-12T16:22:33.783Z,13.40
2023-02-12T16:25:02.642Z,6.07
2023-02-12T16:27:32.117Z,8.37
2023-02-12T16:30:02.523Z,7.47
2023-02-12T16:32:36.459Z,6.00
2023-02-12T16:35:25.328Z,20.37
2023-02-12T16:37:56.432Z,7.67
2023-02-12T16:40:44.080Z,8.60
2023-02-12T16:43:28.692Z,11.27
2023-02-12T16:46:05.485Z,9.03
2023-02-12T16:48:38.733Z,9.83
2023-02-12T16:51:23.984Z,7.90
2023-02-12T16:53:53.955Z,6.07
2023-02-12T16:56:25.345Z,7.80
2023-02-12T16:58:55.694Z,6.13
2023-02-12T17:01:27.890Z,6.17
2023-02-12T17:03:58.687Z,6.53
2023-02-12T17:06:31.050Z,7.80
2023-02-12T17:08:59.893Z,5.50
2023-02-12T17:11:30.334Z,6.60
2023-02-12T17:13:59.298Z,9.30
2023-02-12T17:16:31.161Z,6.87
2023-02-12T17:19:04.202Z,11.27
2023-02-12T17:21:38.458Z,13.30
2023-02-12T17:24:10.220Z,14.07
2023-02-12T17:26:40.024Z,14.60
2023-02-12T17:29:09.519Z,12.93
2023-02-12T17:31:38.129Z,11.53
2023-02-12T17:34:08.403Z,10.73
2023-02-12T17:36:39.241Z,11.90
2023-02-12T17:39:10.403Z,11.70
2023-02-12T17:41:38.591Z,10.80
2023-02-12T17:44:07.000Z,10.87
2023-02-12T17:46:35.517Z,8.67
2023-02-12T17:49:05.592Z,6.27
2023-02-12T17:51:34.345Z,6.80
2023-02-12T17:54:04.009Z,7.27
2023-02-12T17:56:32.608Z,6.07
2023-02-12T17:59:00.706Z,6.87
2023-02-12T18:01:29.507Z,9.67
2023-02-12T18:04:01.711Z,11.77
2023-02-12T18:06:33.721Z,9.37
2023-02-12T18:09:03.432Z,8.53
2023-02-12T18:11:32.157Z,25.60
2023-02-12T18:14:00.745Z,8.13
2023-02-12T18:16:31.224Z,15.70
2023-02-12T18:19:00.235Z,22.73
2023-02-12T18:21:28.942Z,11.27
2023-02-12T18:23:58.203Z,8.70
2023-02-12T18:26:27.686Z,8.97
2023-02-12T18:28:59.189Z,11.90
2023-02-12T18:31:29.571Z,17.10
2023-02-12T18:33:58.004Z,10.80
2023-02-12T18:36:26.548Z,12.53
2023-02-12T18:38:55.335Z,32.77
2023-02-12T18:41:25.340Z,17.07
2023-02-12T18:44:00.021Z,21.07
2023-02-12T18:46:29.661Z,20.33
2023-02-12T18:48:58.058Z,69.20
2023-02-12T18:51:28.916Z,13.57
2023-02-12T18:54:01.412Z,17.00
2023-02-12T18:56:30.593Z,16.37
2023-02-12T18:59:04.446Z,25.70
2023-02-12T19:01:33.901Z,17.60
2023-02-12T19:04:04.536Z,26.13
2023-02-12T19:06:34.540Z,19.70
2023-02-12T19:09:05.115Z,17.97
2023-02-12T19:11:37.032Z,35.17
2023-02-12T19:14:07.580Z,14.87
2023-02-12T19:16:36.107Z,26.73
2023-02-12T19:19:04.970Z,17.30
2023-02-12T19:21:33.327Z,21.37
2023-02-12T19:24:06.441Z,28.37
2023-02-12T19:26:38.523Z,14.73
2023-02-12T19:29:08.975Z,23.90
2023-02-12T19:31:38.734Z,22.23
2023-02-12T19:34:08.541Z,19.57
2023-02-12T19:36:37.899Z,14.17
2023-02-12T19:39:06.701Z,24.60
2023-02-12T19:41:40.570Z,46.07
2023-02-12T19:44:13.042Z,43.67
2023-02-12T19:46:41.896Z,18.90
2023-02-12T19:49:15.357Z,39.73
2023-02-12T19:51:44.073Z,21.80
2023-02-12T19:54:16.372Z,23.83
2023-02-12T19:56:45.279Z,19.40
2023-02-12T19:59:18.922Z,17.17
2023-02-12T20:01:48.434Z,16.03
2023-02-12T20:04:19.483Z,18.80
2023-02-12T20:06:50.836Z,15.00
2023-02-12T20:09:19.847Z,15.30
2023-02-12T20:11:47.776Z,14.30
2023-02-12T20:14:17.885Z,15.33
2023-02-12T20:16:47.947Z,29.00
2023-02-12T20:19:18.615Z,30.13
2023-02-12T20:21:48.847Z,14.37
2023-02-12T20:24:17.599Z,15.97
2023-02-12T20:26:46.611Z,17.27
2023-02-12T20:29:15.412Z,17.80
2023-02-12T20:31:45.308Z,17.00
2023-02-12T20:34:17.253Z,17.67
2023-02-12T20:36:46.986Z,18.47
2023-02-12T20:39:16.712Z,16.77
2023-02-12T20:41:45.554Z,17.73
2023-02-12T20:44:15.773Z,20.63
2023-02-12T20:46:52.548Z,18.30
2023-02-12T20:49:26.100Z,18.40
2023-02-12T20:51:54.484Z,17.40
2023-02-12T20:54:22.904Z,17.87
2023-02-12T20:56:51.839Z,17.73
2023-02-12T20:59:20.464Z,15.83
2023-02-12T21:01:52.571Z,18.90
2023-02-12T21:04:21.419Z,19.67
2023-02-12T21:06:50.337Z,18.63
2023-02-12T21:09:19.839Z,19.37
2023-02-12T21:11:48.682Z,19.87
2023-02-12T21:14:22.622Z,22.27
2023-02-12T21:16:59.669Z,21.57
2023-02-12T21:19:28.261Z,22.30
2023-02-12T21:21:57.663Z,24.23
2023-02-12T21:24:28.174Z,28.33
2023-02-12T21:26:57.217Z,24.03
2023-02-12T21:29:27.751Z,29.17
2023-02-12T21:31:58.141Z,28.90
2023-02-12T21:34:27.129Z,27.50
2023-02-12T21:36:56.996Z,30.53
2023-02-12T21:39:27.519Z,30.40
2023-02-12T21:41:57.496Z,30.77
2023-02-12T21:44:28.557Z,30.37
2023-02-12T21:47:01.175Z,32.73
2023-02-12T21:49:30.158Z,28.83
2023-02-12T21:51:59.750Z,31.97
2023-02-12T21:54:30.272Z,30.10
2023-02-12T21:57:02.204Z,31.30
2023-02-12T21:59:32.499Z,28.90
2023-02-12T22:02:03.464Z,32.33
2023-02-12T22:04:34.294Z,31.33
2023-02-12T22:07:03.500Z,31.07
2023-02-12T22:09:32.474Z,31.50
2023-02-12T22:12:00.426Z,33.87
2023-02-12T22:14:28.943Z,32.03
2023-02-12T22:16:58.632Z,34.50
2023-02-12T22:19:29.959Z,35.83
2023-02-12T22:21:59.441Z,34.43
2023-02-12T22:24:30.242Z,34.17
2023-02-12T22:26:59.337Z,34.47
2023-02-12T22:29:29.518Z,35.93
2023-02-12T22:31:58.046Z,35.77
2023-02-12T22:34:30.364Z,35.23
2023-02-12T22:37:00.169Z,42.33
2023-02-12T22:39:29.908Z,33.77
2023-02-12T22:41:57.895Z,34.70
2023-02-12T22:44:26.212Z,41.57
2023-02-12T22:46:59.002Z,34.23
2023-02-12T22:49:28.103Z,38.30
2023-02-12T22:51:56.749Z,37.27
2023-02-12T22:54:26.053Z,30.67
2023-02-12T22:56:55.432Z,34.07
2023-02-12T22:59:23.408Z,34.90
2023-02-12T23:01:52.424Z,41.77
2023-02-12T23:04:20.907Z,38.63
2023-02-12T23:06:49.093Z,35.63
2023-02-12T23:09:21.368Z,38.23
2023-02-12T23:11:53.086Z,44.47
2023-02-12T23:14:22.033Z,35.30
2023-02-12T23:16:50.062Z,38.90
2023-02-12T23:19:18.458Z,40.00
2023-02-12T23:21:49.043Z,37.67
2023-02-12T23:24:18.294Z,35.17
2023-02-12T23:26:46.694Z,35.40
2023-02-12T23:29:15.975Z,34.37
2023-02-12T23:31:44.403Z,31.77
2023-02-12T23:34:14.955Z,26.13
2023-02-12T23:36:43.316Z,31.20
2023-02-12T23:39:14.858Z,28.20
2023-02-12T23:41:43.050Z,28.27
2023-02-12T23:44:13.931Z,25.23
2023-02-12T23:46:44.216Z,26.77
2023-02-12T23:49:13.042Z,27.23
2023-02-12T23:51:41.267Z,27.30
2023-02-12T23:54:10.066Z,25.93
2023-02-12T23:56:38.190Z,24.77
2023-02-12T23:59:06.685Z,21.40
